Pigeon, Indiana
Current Conditions -  °F | °C
As of 9:15 PM on Monday 26 Jan 2015 (Local Time) from KHNB Reporting Station
Broken Clouds Broken Clouds  
Wind Chill: 23°   Ceiling: 500
Heat Index: 28°   Visibility: 7mi
Dew Point: 25°   Wind: 5mph
Humidity: 86%   Direction: 160°SSE
Pressure: 29.96"   Gusts: NA
Location:  38.17°N, 87.0282°W
Report Text: KHNB 270315Z AUTO 16004KT 7SM BKN005 M02/M04 A2996 RMK AO1
Loading
Personal Weather Stations






























Interactive Weather Map New forecast layout! Learn more

10-Day Weather Forecast

Advertisements
Track Severe Weather on mobile